Time,TemperatureF,DewpointF,PressureIn,WindDirection,WindDirectionDegrees,WindSpeedMPH,WindSpeedGustMPH,Humidity,HourlyPrecipIn,Conditions,Clouds,dailyrainin,SoftwareType,DateUTC
2013-03-04 00:00:00,24.6,9.9,30.08,SW,215,0.0,0.0,53,0.00,,---,0.00,VWS V13.01,2013-03-04 05:00:00,
2013-03-04 00:05:00,24.6,10.4,30.08,SW,215,0.0,0.0,54,0.00,,---,0.00,VWS V13.01,2013-03-04 05:05:00,
2013-03-04 00:10:00,24.6,10.4,30.08,SW,215,0.0,0.0,54,0.00,,---,0.00,VWS V13.01,2013-03-04 05:10:00,
2013-03-04 00:15:00,24.4,10.2,30.08,SW,215,0.0,0.0,54,0.00,,---,0.00,VWS V13.01,2013-03-04 05:15:00,
2013-03-04 00:20:00,24.4,10.2,30.08,SW,215,0.0,0.0,54,0.00,,---,0.00,VWS V13.01,2013-03-04 05:20:00,
2013-03-04 00:25:00,24.3,10.0,30.08,SW,215,0.0,0.0,54,0.00,,---,0.00,VWS V13.01,2013-03-04 05:25:00,
2013-03-04 00:31:00,23.9,9.7,30.08,SW,215,0.0,0.0,54,0.00,,---,0.00,VWS V13.01,2013-03-04 05:31:00,
2013-03-04 00:36:00,23.5,9.4,30.08,SW,215,0.0,0.0,54,0.00,,---,0.00,VWS V13.01,2013-03-04 05:36:00,
2013-03-04 00:41:00,23.5,9.4,30.08,SW,215,0.0,0.0,54,0.00,,---,0.00,VWS V13.01,2013-03-04 05:41:00,
2013-03-04 00:46:00,23.4,9.2,30.08,SW,215,0.0,0.0,54,0.00,,---,0.00,VWS V13.01,2013-03-04 05:46:00,
2013-03-04 00:51:00,23.2,9.0,30.08,SW,215,0.0,0.0,54,0.00,,---,0.00,VWS V13.01,2013-03-04 05:51:00,
2013-03-04 00:56:00,23.2,9.0,30.08,SW,215,0.0,0.0,54,0.00,,---,0.00,VWS V13.01,2013-03-04 05:56:00,
2013-03-04 01:01:00,23.0,8.9,30.08,SW,215,0.0,0.0,54,0.00,,---,0.00,VWS V13.01,2013-03-04 06:01:00,
2013-03-04 01:06:00,23.0,8.9,30.08,SW,215,0.0,0.0,54,0.00,,---,0.00,VWS V13.01,2013-03-04 06:06:00,
2013-03-04 01:11:00,23.0,9.2,30.08,SW,215,0.0,0.0,55,0.00,,---,0.00,VWS V13.01,2013-03-04 06:11:00,
2013-03-04 01:16:00,23.2,9.4,30.08,SW,215,0.0,0.0,55,0.00,,---,0.00,VWS V13.01,2013-03-04 06:16:00,
2013-03-04 01:21:00,23.2,9.4,30.08,SW,215,0.0,0.0,55,0.00,,---,0.00,VWS V13.01,2013-03-04 06:21:00,
2013-03-04 01:26:00,23.0,9.2,30.08,SW,215,0.0,0.0,55,0.00,,---,0.00,VWS V13.01,2013-03-04 06:26:00,
2013-03-04 01:31:00,22.6,8.9,30.08,SW,215,0.0,0.0,55,0.00,,---,0.00,VWS V13.01,2013-03-04 06:31:00,
2013-03-04 01:36:00,22.3,8.2,30.08,SW,215,0.0,0.0,54,0.00,,---,0.00,VWS V13.01,2013-03-04 06:36:00,
2013-03-04 01:41:00,22.1,8.4,30.08,SW,215,0.0,0.0,55,0.00,,---,0.00,VWS V13.01,2013-03-04 06:41:00,
2013-03-04 01:46:00,22.1,8.4,30.08,SW,215,0.0,0.0,55,0.00,,---,0.00,VWS V13.01,2013-03-04 06:46:00,
2013-03-04 01:51:00,22.1,8.4,30.08,SW,215,0.0,0.0,55,0.00,,---,0.00,VWS V13.01,2013-03-04 06:51:00,
2013-03-04 01:56:00,22.3,8.6,30.08,SW,215,0.0,0.0,55,0.00,,---,0.00,VWS V13.01,2013-03-04 06:56:00,
2013-03-04 02:01:00,22.5,8.8,30.08,SW,215,3.1,4.0,55,0.00,,---,0.00,VWS V13.01,2013-03-04 07:01:00,
2013-03-04 02:06:00,22.5,9.1,30.08,SW,215,0.0,0.0,56,0.00,,---,0.00,VWS V13.01,2013-03-04 07:06:00,
2013-03-04 02:11:00,22.5,9.1,30.08,SW,215,0.0,0.0,56,0.00,,---,0.00,VWS V13.01,2013-03-04 07:11:00,
2013-03-04 02:16:00,22.3,8.6,30.08,SW,215,0.0,0.0,55,0.00,,---,0.00,VWS V13.01,2013-03-04 07:16:00,
2013-03-04 02:21:00,22.3,8.6,30.08,SW,215,0.0,0.0,55,0.00,,---,0.00,VWS V13.01,2013-03-04 07:21:00,
2013-03-04 02:26:00,22.1,8.4,30.08,SW,215,0.0,0.0,55,0.00,,---,0.00,VWS V13.01,2013-03-04 07:26:00,
2013-03-04 02:31:00,21.9,8.6,30.08,SW,215,0.0,0.0,56,0.00,,---,0.00,VWS V13.01,2013-03-04 07:31:00,
2013-03-04 02:36:00,21.7,8.5,30.08,SW,215,0.0,0.0,56,0.00,,---,0.00,VWS V13.01,2013-03-04 07:36:00,
2013-03-04 02:41:00,21.6,8.3,30.08,SW,215,0.0,0.0,56,0.00,,---,0.00,VWS V13.01,2013-03-04 07:41:00,
2013-03-04 02:46:00,21.6,8.3,30.08,SW,215,0.0,0.0,56,0.00,,---,0.00,VWS V13.01,2013-03-04 07:46:00,
2013-03-04 02:51:00,21.4,8.5,30.08,SW,215,0.0,0.0,57,0.00,,---,0.00,VWS V13.01,2013-03-04 07:51:00,
2013-03-04 02:56:00,21.4,8.5,30.08,SW,215,0.0,0.0,57,0.00,,---,0.00,VWS V13.01,2013-03-04 07:56:00,
2013-03-04 03:01:00,21.2,8.4,30.08,SW,215,0.0,0.0,57,0.00,,---,0.00,VWS V13.01,2013-03-04 08:01:00,
2013-03-04 03:06:00,21.2,8.4,30.08,SW,215,3.6,4.5,57,0.00,,---,0.00,VWS V13.01,2013-03-04 08:06:00,
2013-03-04 03:11:00,21.0,8.6,30.08,SW,215,3.6,4.0,58,0.00,,---,0.00,VWS V13.01,2013-03-04 08:11:00,
2013-03-04 03:16:00,21.2,8.7,30.08,SW,215,2.7,3.6,58,0.00,,---,0.00,VWS V13.01,2013-03-04 08:16:00,
2013-03-04 03:21:00,21.4,9.3,30.08,SW,215,0.0,0.0,59,0.00,,---,0.00,VWS V13.01,2013-03-04 08:21:00,
2013-03-04 03:26:00,21.4,9.3,30.08,SW,215,0.0,0.0,59,0.00,,---,0.00,VWS V13.01,2013-03-04 08:26:00,
2013-03-04 03:31:00,21.7,9.6,30.08,SW,215,0.0,0.0,59,0.00,,---,0.00,VWS V13.01,2013-03-04 08:31:00,
2013-03-04 03:36:00,21.9,10.2,30.08,SW,215,0.0,0.0,60,0.00,,---,0.00,VWS V13.01,2013-03-04 08:36:00,
2013-03-04 03:41:00,21.9,9.8,30.08,SW,215,0.0,0.0,59,0.00,,---,0.00,VWS V13.01,2013-03-04 08:41:00,
2013-03-04 03:46:00,22.1,10.0,30.08,SW,215,0.0,0.0,59,0.00,,---,0.00,VWS V13.01,2013-03-04 08:46:00,
2013-03-04 03:51:00,21.7,9.6,30.08,SW,215,0.0,0.0,59,0.00,,---,0.00,VWS V13.01,2013-03-04 08:51:00,
2013-03-04 03:56:00,21.9,9.8,30.08,SW,215,0.0,0.0,59,0.00,,---,0.00,VWS V13.01,2013-03-04 08:56:00,
2013-03-04 04:01:00,22.3,9.8,30.08,SW,215,0.0,0.0,58,0.00,,---,0.00,VWS V13.01,2013-03-04 09:01:00,
2013-03-04 04:06:00,22.5,9.9,30.08,SW,215,0.0,0.0,58,0.00,,---,0.00,VWS V13.01,2013-03-04 09:06:00,
2013-03-04 04:11:00,22.6,10.1,30.08,SW,215,0.0,0.0,58,0.00,,---,0.00,VWS V13.01,2013-03-04 09:11:00,
2013-03-04 04:16:00,23.0,10.4,30.08,SW,215,0.0,0.0,58,0.00,,---,0.00,VWS V13.01,2013-03-04 09:16:00,
2013-03-04 04:21:00,22.8,10.3,30.08,SW,215,0.0,0.0,58,0.00,,---,0.00,VWS V13.01,2013-03-04 09:21:00,
2013-03-04 04:26:00,22.6,9.7,30.11,SW,215,0.0,0.0,57,0.00,,---,0.00,VWS V13.01,2013-03-04 09:26:00,
2013-03-04 04:31:00,22.5,9.5,30.11,SW,215,0.0,0.0,57,0.00,,---,0.00,VWS V13.01,2013-03-04 09:31:00,
2013-03-04 04:36:00,22.5,9.1,30.11,SW,215,0.0,0.0,56,0.00,,---,0.00,VWS V13.01,2013-03-04 09:36:00,
2013-03-04 04:41:00,22.6,9.7,30.11,SW,215,0.0,0.0,57,0.00,,---,0.00,VWS V13.01,2013-03-04 09:41:00,
2013-03-04 04:46:00,22.3,9.0,30.11,SW,215,0.0,0.0,56,0.00,,---,0.00,VWS V13.01,2013-03-04 09:46:00,
2013-03-04 04:51:00,22.1,8.8,30.11,SW,215,0.0,0.0,56,0.00,,---,0.00,VWS V13.01,2013-03-04 09:51:00,
2013-03-04 04:56:00,22.5,9.1,30.11,SW,215,0.0,0.0,56,0.00,,---,0.00,VWS V13.01,2013-03-04 09:56:00,
2013-03-04 05:01:00,22.6,9.3,30.11,SW,215,0.0,0.0,56,0.00,,---,0.00,VWS V13.01,2013-03-04 10:01:00,
2013-03-04 05:06:00,22.5,9.1,30.11,SW,215,0.0,0.0,56,0.00,,---,0.00,VWS V13.01,2013-03-04 10:06:00,
2013-03-04 05:11:00,22.5,9.1,30.11,SW,215,0.0,0.0,56,0.00,,---,0.00,VWS V13.01,2013-03-04 10:11:00,
2013-03-04 05:16:00,22.1,8.8,30.11,SW,215,0.0,0.0,56,0.00,,---,0.00,VWS V13.01,2013-03-04 10:16:00,
2013-03-04 05:21:00,21.7,8.1,30.11,SW,215,0.0,0.0,55,0.00,,---,0.00,VWS V13.01,2013-03-04 10:21:00,
2013-03-04 05:26:00,21.9,8.6,30.11,SW,215,0.0,0.0,56,0.00,,---,0.00,VWS V13.01,2013-03-04 10:26:00,
2013-03-04 05:31:00,21.9,8.6,30.11,SW,215,0.0,0.0,56,0.00,,---,0.00,VWS V13.01,2013-03-04 10:31:00,
2013-03-04 05:36:00,21.9,8.6,30.11,SW,215,0.0,0.0,56,0.00,,---,0.00,VWS V13.01,2013-03-04 10:36:00,
2013-03-04 05:41:00,21.7,8.5,30.11,SW,215,0.0,0.0,56,0.00,,---,0.00,VWS V13.01,2013-03-04 10:41:00,
2013-03-04 05:46:00,21.6,8.3,30.11,SW,215,0.0,0.0,56,0.00,,---,0.00,VWS V13.01,2013-03-04 10:46:00,
2013-03-04 05:51:00,21.9,8.6,30.11,SW,215,0.0,0.0,56,0.00,,---,0.00,VWS V13.01,2013-03-04 10:51:00,
2013-03-04 05:56:00,22.1,8.4,30.11,SW,215,0.0,0.0,55,0.00,,---,0.00,VWS V13.01,2013-03-04 10:56:00,
2013-03-04 06:01:00,22.1,8.4,30.11,SW,215,0.0,0.0,55,0.00,,---,0.00,VWS V13.01,2013-03-04 11:01:00,
2013-03-04 06:06:00,21.9,8.2,30.11,SW,215,0.0,0.0,55,0.00,,---,0.00,VWS V13.01,2013-03-04 11:06:00,
2013-03-04 06:11:00,22.1,8.4,30.11,SW,215,0.0,0.0,55,0.00,,---,0.00,VWS V13.01,2013-03-04 11:11:00,
2013-03-04 06:16:00,22.1,8.4,30.11,SW,215,0.0,0.0,55,0.00,,---,0.00,VWS V13.01,2013-03-04 11:16:00,
2013-03-04 06:21:00,22.3,8.6,30.11,SW,215,0.0,0.0,55,0.00,,---,0.00,VWS V13.01,2013-03-04 11:21:00,
2013-03-04 06:26:00,22.1,8.4,30.11,SW,215,0.0,0.0,55,0.00,,---,0.00,VWS V13.01,2013-03-04 11:26:00,
2013-03-04 06:31:00,22.1,8.4,30.11,SW,215,0.0,0.0,55,0.00,,---,0.00,VWS V13.01,2013-03-04 11:31:00,
2013-03-04 06:36:00,21.9,8.2,30.11,SW,215,0.0,0.0,55,0.00,,---,0.00,VWS V13.01,2013-03-04 11:36:00,
2013-03-04 06:41:00,21.7,8.1,30.11,SW,215,0.0,0.0,55,0.00,,---,0.00,VWS V13.01,2013-03-04 11:41:00,
2013-03-04 06:46:00,21.9,8.2,30.11,SW,215,0.0,0.0,55,0.00,,---,0.00,VWS V13.01,2013-03-04 11:46:00,
2013-03-04 06:51:00,22.1,8.4,30.11,SW,215,0.0,0.0,55,0.00,,---,0.00,VWS V13.01,2013-03-04 11:51:00,
2013-03-04 06:56:00,22.1,8.4,30.11,SW,215,0.0,0.0,55,0.00,,---,0.00,VWS V13.01,2013-03-04 11:56:00,
2013-03-04 07:01:00,21.7,8.1,30.11,SW,215,0.0,0.0,55,0.00,,---,0.00,VWS V13.01,2013-03-04 12:01:00,
2013-03-04 07:06:00,21.9,8.2,30.11,SW,215,0.0,0.0,55,0.00,,---,0.00,VWS V13.01,2013-03-04 12:06:00,
2013-03-04 07:11:00,22.1,8.4,30.11,SW,215,0.0,0.0,55,0.00,,---,0.00,VWS V13.01,2013-03-04 12:11:00,
2013-03-04 07:16:00,22.1,8.4,30.11,SW,215,0.0,0.0,55,0.00,,---,0.00,VWS V13.01,2013-03-04 12:16:00,
2013-03-04 07:21:00,21.9,7.8,30.11,SW,215,0.0,0.0,54,0.00,,---,0.00,VWS V13.01,2013-03-04 12:21:00,
2013-03-04 07:26:00,21.9,7.8,30.14,SW,215,0.0,0.0,54,0.00,,---,0.00,VWS V13.01,2013-03-04 12:26:00,
2013-03-04 07:31:00,21.9,7.8,30.14,SW,215,0.0,0.0,54,0.00,,---,0.00,VWS V13.01,2013-03-04 12:31:00,
2013-03-04 07:36:00,22.3,8.2,30.14,SW,215,0.0,0.0,54,0.00,,---,0.00,VWS V13.01,2013-03-04 12:36:00,
2013-03-04 07:41:00,22.8,9.1,30.11,SW,215,0.0,0.0,55,0.00,,---,0.00,VWS V13.01,2013-03-04 12:41:00,
2013-03-04 07:46:00,23.2,9.4,30.11,SW,215,0.0,0.0,55,0.00,,---,0.00,VWS V13.01,2013-03-04 12:46:00,
2013-03-04 07:52:00,23.2,9.4,30.11,SW,215,0.0,0.0,55,0.00,,---,0.00,VWS V13.01,2013-03-04 12:52:00,
2013-03-04 07:57:00,23.9,10.1,30.11,SW,215,0.0,0.0,55,0.00,,---,0.00,VWS V13.01,2013-03-04 12:57:00,
2013-03-04 08:02:00,24.1,9.9,30.11,SW,215,0.0,0.0,54,0.00,,---,0.00,VWS V13.01,2013-03-04 13:02:00,
2013-03-04 08:07:00,24.6,10.8,30.11,SW,215,3.6,4.0,55,0.00,,---,0.00,VWS V13.01,2013-03-04 13:07:00,
2013-03-04 08:12:00,25.3,11.4,30.11,SW,215,3.1,3.6,55,0.00,,---,0.00,VWS V13.01,2013-03-04 13:12:00,
2013-03-04 08:17:00,25.9,11.9,30.11,SW,215,3.6,3.6,55,0.00,,---,0.00,VWS V13.01,2013-03-04 13:17:00,
2013-03-04 08:22:00,26.2,11.4,30.11,SW,215,3.6,3.6,53,0.00,,---,0.00,VWS V13.01,2013-03-04 13:22:00,
2013-03-04 08:27:00,26.6,11.8,30.11,SW,215,3.1,3.1,53,0.00,,---,0.00,VWS V13.01,2013-03-04 13:27:00,
2013-03-04 08:32:00,27.1,12.3,30.11,SW,215,2.7,3.1,53,0.00,,---,0.00,VWS V13.01,2013-03-04 13:32:00,
2013-03-04 08:37:00,27.5,12.2,30.11,SW,215,0.0,0.0,52,0.00,,---,0.00,VWS V13.01,2013-03-04 13:37:00,
2013-03-04 08:42:00,28.0,12.7,30.11,SW,215,0.0,0.0,52,0.00,,---,0.00,VWS V13.01,2013-03-04 13:42:00,
2013-03-04 08:47:00,28.2,12.9,30.11,SW,215,0.0,0.0,52,0.00,,---,0.00,VWS V13.01,2013-03-04 13:47:00,
2013-03-04 08:52:00,28.4,12.6,30.11,SW,215,3.1,3.1,51,0.00,,---,0.00,VWS V13.01,2013-03-04 13:52:00,
2013-03-04 08:57:00,28.8,12.5,30.14,SW,215,2.7,3.1,50,0.00,,---,0.00,VWS V13.01,2013-03-04 13:57:00,
2013-03-04 09:02:00,29.1,12.8,30.14,SW,215,3.1,3.6,50,0.00,,---,0.00,VWS V13.01,2013-03-04 14:02:00,
2013-03-04 09:07:00,29.3,12.5,30.14,SW,215,4.0,4.0,49,0.00,,---,0.00,VWS V13.01,2013-03-04 14:07:00,
2013-03-04 09:12:00,29.3,12.5,30.11,SW,215,3.6,3.6,49,0.00,,---,0.00,VWS V13.01,2013-03-04 14:12:00,
2013-03-04 09:17:00,30.0,13.2,30.11,SW,215,0.0,0.0,49,0.00,,---,0.00,VWS V13.01,2013-03-04 14:17:00,
2013-03-04 09:22:00,30.2,12.4,30.11,SW,215,3.6,3.6,47,0.00,,---,0.00,VWS V13.01,2013-03-04 14:22:00,
2013-03-04 09:27:00,30.2,11.4,30.11,SW,215,4.9,4.9,45,0.00,,---,0.00,VWS V13.01,2013-03-04 14:27:00,
2013-03-04 09:32:00,30.0,10.8,30.11,SW,215,3.6,4.0,44,0.00,,---,0.00,VWS V13.01,2013-03-04 14:32:00,
2013-03-04 09:37:00,30.0,10.8,30.11,SW,215,3.6,3.6,44,0.00,,---,0.00,VWS V13.01,2013-03-04 14:37:00,
2013-03-04 09:42:00,30.0,10.8,30.11,ENE,71,3.1,4.0,44,0.00,,---,0.00,VWS V13.01,2013-03-04 14:42:00,
2013-03-04 09:47:00,30.0,10.8,30.11,ENE,66,4.5,4.9,44,0.00,,---,0.00,VWS V13.01,2013-03-04 14:47:00,
2013-03-04 09:52:00,30.4,11.1,30.11,ENE,64,3.1,4.0,44,0.00,,---,0.00,VWS V13.01,2013-03-04 14:52:00,
2013-03-04 09:57:00,30.2,10.9,30.11,ENE,64,4.5,4.5,44,0.00,,---,0.00,VWS V13.01,2013-03-04 14:57:00,
2013-03-04 10:02:00,30.6,11.2,30.11,ENE,68,3.6,4.0,44,0.00,,---,0.00,VWS V13.01,2013-03-04 15:02:00,
2013-03-04 10:07:00,30.7,11.4,30.11,ENE,69,4.0,4.0,44,0.00,,---,0.00,VWS V13.01,2013-03-04 15:07:00,
2013-03-04 10:12:00,30.9,11.6,30.11,ENE,68,2.7,4.5,44,0.00,,---,0.00,VWS V13.01,2013-03-04 15:12:00,
2013-03-04 10:17:00,31.3,11.4,30.11,ENE,69,0.0,0.0,43,0.00,,---,0.00,VWS V13.01,2013-03-04 15:17:00,
2013-03-04 10:22:00,32.2,12.2,30.11,NE,53,4.0,4.0,43,0.00,,---,0.00,VWS V13.01,2013-03-04 15:22:00,
2013-03-04 10:27:00,32.4,11.9,30.11,ENE,78,2.7,4.0,42,0.00,,---,0.00,VWS V13.01,2013-03-04 15:27:00,
2013-03-04 10:32:00,32.7,12.2,30.11,NNE,19,4.0,4.9,42,0.00,,---,0.00,VWS V13.01,2013-03-04 15:32:00,
2013-03-04 10:37:00,33.3,12.7,30.11,NE,53,5.4,5.4,42,0.00,,---,0.00,VWS V13.01,2013-03-04 15:37:00,
2013-03-04 10:42:00,33.4,12.3,30.11,SSW,201,3.6,3.6,41,0.00,,---,0.00,VWS V13.01,2013-03-04 15:42:00,
2013-03-04 10:47:00,33.8,12.6,30.11,East,89,3.1,3.6,41,0.00,,---,0.00,VWS V13.01,2013-03-04 15:47:00,
2013-03-04 10:52:00,33.8,12.6,30.11,North,356,4.5,6.3,41,0.00,,---,0.00,VWS V13.01,2013-03-04 15:52:00,
2013-03-04 10:57:00,34.5,13.3,30.11,ENE,69,6.7,6.7,41,0.00,,---,0.00,VWS V13.01,2013-03-04 15:57:00,
2013-03-04 11:02:00,34.9,13.6,30.11,North,11,3.1,4.9,41,0.00,,---,0.00,VWS V13.01,2013-03-04 16:02:00,
2013-03-04 11:07:00,35.6,14.2,30.11,East,83,4.5,5.4,41,0.00,,---,0.00,VWS V13.01,2013-03-04 16:07:00,
2013-03-04 11:13:00,36.1,14.2,30.11,ENE,62,2.7,5.4,40,0.00,,---,0.00,VWS V13.01,2013-03-04 16:13:00,
2013-03-04 11:18:00,36.5,13.9,30.11,ENE,69,3.6,6.3,39,0.00,,---,0.00,VWS V13.01,2013-03-04 16:18:00,
2013-03-04 11:23:00,37.0,15.0,30.11,ENE,73,6.3,6.9,40,0.00,,---,0.00,VWS V13.01,2013-03-04 16:23:00,
2013-03-04 11:28:00,37.6,14.9,30.11,East,100,3.1,4.9,39,0.00,,---,0.00,VWS V13.01,2013-03-04 16:28:00,
2013-03-04 11:33:00,37.9,15.2,30.11,East,84,6.9,7.8,39,0.00,,---,0.00,VWS V13.01,2013-03-04 16:33:00,
2013-03-04 11:38:00,38.3,14.9,30.11,SE,146,4.0,5.8,38,0.00,,---,0.00,VWS V13.01,2013-03-04 16:38:00,
2013-03-04 11:43:00,37.9,13.4,30.11,East,94,4.5,4.5,36,0.00,,---,0.00,VWS V13.01,2013-03-04 16:43:00,
2013-03-04 11:48:00,38.5,13.9,30.11,NNE,25,4.9,6.7,36,0.00,,---,0.00,VWS V13.01,2013-03-04 16:48:00,
2013-03-04 11:53:00,38.8,13.5,30.11,East,94,7.8,7.8,35,0.00,,---,0.00,VWS V13.01,2013-03-04 16:53:00,
2013-03-04 11:58:00,39.4,14.0,30.11,East,89,5.4,5.4,35,0.00,,---,0.00,VWS V13.01,2013-03-04 16:58:00,
2013-03-04 12:03:00,39.9,14.5,30.11,East,80,5.8,6.3,35,0.00,,---,0.00,VWS V13.01,2013-03-04 17:03:00,
2013-03-04 12:08:00,40.8,15.3,30.11,NE,37,4.9,6.7,35,0.00,,---,0.00,VWS V13.01,2013-03-04 17:08:00,
2013-03-04 12:13:00,42.1,16.4,30.11,NNE,14,5.8,5.8,35,0.00,,---,0.00,VWS V13.01,2013-03-04 17:13:00,
2013-03-04 12:18:00,42.8,16.4,30.11,NNE,19,4.5,6.3,34,0.00,,---,0.00,VWS V13.01,2013-03-04 17:18:00,
2013-03-04 12:23:00,43.3,14.8,30.11,ENE,71,3.6,3.6,31,0.00,,---,0.00,VWS V13.01,2013-03-04 17:23:00,
2013-03-04 12:28:00,43.2,14.6,30.08,ENE,77,6.9,6.9,31,0.00,,---,0.00,VWS V13.01,2013-03-04 17:28:00,
2013-03-04 12:33:00,42.6,13.4,30.08,NE,48,5.8,8.3,30,0.00,,---,0.00,VWS V13.01,2013-03-04 17:33:00,
2013-03-04 12:38:00,42.3,13.1,30.08,East,88,3.1,3.1,30,0.00,,---,0.00,VWS V13.01,2013-03-04 17:38:00,
2013-03-04 12:43:00,41.9,13.5,30.08,East,89,4.0,4.5,31,0.00,,---,0.00,VWS V13.01,2013-03-04 17:43:00,
2013-03-04 12:48:00,42.3,13.8,30.08,ENE,60,7.4,8.3,31,0.00,,---,0.00,VWS V13.01,2013-03-04 17:48:00,
2013-03-04 12:53:00,42.3,13.8,30.08,ENE,72,4.5,4.5,31,0.00,,---,0.00,VWS V13.01,2013-03-04 17:53:00,
2013-03-04 12:58:00,42.8,14.3,30.08,North,351,3.6,5.4,31,0.00,,---,0.00,VWS V13.01,2013-03-04 17:58:00,
2013-03-04 13:03:00,43.3,14.0,30.08,East,80,4.5,4.9,30,0.00,,---,0.00,VWS V13.01,2013-03-04 18:03:00,
2013-03-04 13:08:00,43.3,14.0,30.08,ENE,67,3.6,4.0,30,0.00,,---,0.00,VWS V13.01,2013-03-04 18:08:00,
2013-03-04 13:13:00,43.5,14.2,30.08,East,79,4.0,4.5,30,0.00,,---,0.00,VWS V13.01,2013-03-04 18:13:00,
2013-03-04 13:18:00,43.3,14.0,30.08,East,86,4.5,4.5,30,0.00,,---,0.00,VWS V13.01,2013-03-04 18:18:00,
2013-03-04 13:23:00,43.3,14.0,30.08,NE,52,5.8,5.8,30,0.00,,---,0.00,VWS V13.01,2013-03-04 18:23:00,
2013-03-04 13:28:00,43.3,14.0,30.08,ESE,107,5.4,6.9,30,0.00,,---,0.00,VWS V13.01,2013-03-04 18:28:00,
2013-03-04 13:29:00,43.3,14.0,30.08,East,94,4.9,4.9,30,0.00,,---,0.00,VWS V13.01,2013-03-04 18:29:00,
2013-03-04 13:30:00,43.3,14.0,30.08,East,82,6.3,6.9,30,0.00,,---,0.00,VWS V13.01,2013-03-04 18:30:00,
2013-03-04 13:35:00,43.0,13.7,30.08,East,80,3.1,3.1,30,0.00,,---,0.00,VWS V13.01,2013-03-04 18:35:00,
2013-03-04 13:40:00,43.5,14.2,30.08,SE,132,4.5,6.7,30,0.00,,---,0.00,VWS V13.01,2013-03-04 18:40:00,
2013-03-04 13:45:00,43.0,13.7,30.08,ENE,71,4.5,8.7,30,0.00,,---,0.00,VWS V13.01,2013-03-04 18:45:00,
2013-03-04 13:50:00,42.8,13.5,30.08,East,88,4.5,6.3,30,0.00,,---,0.00,VWS V13.01,2013-03-04 18:50:00,
2013-03-04 13:55:00,42.8,13.5,30.05,ENE,66,3.6,3.6,30,0.00,,---,0.00,VWS V13.01,2013-03-04 18:55:00,
2013-03-04 14:00:00,43.2,13.8,30.05,NE,52,5.4,6.9,30,0.00,,---,0.00,VWS V13.01,2013-03-04 19:00:00,
2013-03-04 14:05:00,43.2,13.1,30.05,ENE,68,7.8,9.6,29,0.00,,---,0.00,VWS V13.01,2013-03-04 19:05:00,
2013-03-04 14:10:00,43.3,14.0,30.05,NNE,23,2.7,4.9,30,0.00,,---,0.00,VWS V13.01,2013-03-04 19:10:00,
2013-03-04 14:15:00,43.5,13.4,30.05,ENE,61,5.8,7.4,29,0.00,,---,0.00,VWS V13.01,2013-03-04 19:15:00,
2013-03-04 14:20:00,43.7,13.5,30.05,ENE,69,3.6,6.9,29,0.00,,---,0.00,VWS V13.01,2013-03-04 19:20:00,
2013-03-04 14:25:00,43.9,13.7,30.05,North,6,4.9,4.9,29,0.00,,---,0.00,VWS V13.01,2013-03-04 19:25:00,
2013-03-04 14:30:00,44.2,14.8,30.05,NNE,17,3.6,4.5,30,0.00,,---,0.00,VWS V13.01,2013-03-04 19:30:00,
2013-03-04 14:35:00,44.6,15.1,30.05,North,11,5.8,7.4,30,0.00,,---,0.00,VWS V13.01,2013-03-04 19:35:00,
2013-03-04 14:40:00,45.3,15.7,30.05,ENE,69,7.4,7.4,30,0.00,,---,0.00,VWS V13.01,2013-03-04 19:40:00,
2013-03-04 14:45:00,45.3,14.9,30.05,ENE,72,6.3,6.3,29,0.00,,---,0.00,VWS V13.01,2013-03-04 19:45:00,
2013-03-04 14:50:00,45.1,14.8,30.05,NNE,16,6.3,6.3,29,0.00,,---,0.00,VWS V13.01,2013-03-04 19:50:00,
2013-03-04 14:55:00,44.8,13.7,30.05,ENE,77,5.4,6.9,28,0.00,,---,0.00,VWS V13.01,2013-03-04 19:55:00,
2013-03-04 15:00:00,44.2,13.2,30.05,NE,45,4.0,4.0,28,0.00,,---,0.00,VWS V13.01,2013-03-04 20:00:00,
2013-03-04 15:05:00,44.2,13.2,30.05,ENE,77,8.7,9.2,28,0.00,,---,0.00,VWS V13.01,2013-03-04 20:05:00,
2013-03-04 15:10:00,43.9,12.9,30.05,ENE,66,5.8,6.7,28,0.00,,---,0.00,VWS V13.01,2013-03-04 20:10:00,
2013-03-04 15:15:00,43.5,12.6,30.05,ENE,64,5.8,6.7,28,0.00,,---,0.00,VWS V13.01,2013-03-04 20:15:00,
2013-03-04 15:20:00,42.6,11.8,30.05,ENE,60,4.0,4.0,28,0.00,,---,0.00,VWS V13.01,2013-03-04 20:20:00,
2013-03-04 15:25:00,42.6,11.8,30.05,ENE,59,4.9,6.9,28,0.00,,---,0.00,VWS V13.01,2013-03-04 20:25:00,
2013-03-04 15:30:00,42.4,11.7,30.05,ENE,65,5.4,7.8,28,0.00,,---,0.00,VWS V13.01,2013-03-04 20:30:00,
2013-03-04 15:35:00,42.4,12.4,30.05,NNE,23,4.0,7.8,29,0.00,,---,0.00,VWS V13.01,2013-03-04 20:35:00,
2013-03-04 15:40:00,42.8,12.8,30.05,North,6,4.0,5.8,29,0.00,,---,0.00,VWS V13.01,2013-03-04 20:40:00,
2013-03-04 15:45:00,42.8,12.8,30.05,ENE,75,7.4,7.4,29,0.00,,---,0.00,VWS V13.01,2013-03-04 20:45:00,
2013-03-04 15:50:00,42.4,12.4,30.05,NE,56,4.5,5.4,29,0.00,,---,0.00,VWS V13.01,2013-03-04 20:50:00,
2013-03-04 15:55:00,42.4,12.4,30.05,ENE,64,5.4,6.9,29,0.00,,---,0.00,VWS V13.01,2013-03-04 20:55:00,
2013-03-04 16:00:00,42.6,12.6,30.05,ENE,68,3.6,4.9,29,0.00,,---,0.00,VWS V13.01,2013-03-04 21:00:00,
2013-03-04 16:05:00,43.0,12.9,30.05,NE,56,4.0,4.0,29,0.00,,---,0.00,VWS V13.01,2013-03-04 21:05:00,
2013-03-04 16:10:00,42.8,12.0,30.05,NNE,21,3.6,3.6,28,0.00,,---,0.00,VWS V13.01,2013-03-04 21:10:00,
2013-03-04 16:15:00,42.6,12.6,30.05,NE,54,6.7,6.9,29,0.00,,---,0.00,VWS V13.01,2013-03-04 21:15:00,
2013-03-04 16:20:00,42.4,12.4,30.05,NE,56,4.0,5.4,29,0.00,,---,0.00,VWS V13.01,2013-03-04 21:20:00,
2013-03-04 16:25:00,42.4,12.4,30.05,NE,37,4.9,5.8,29,0.00,,---,0.00,VWS V13.01,2013-03-04 21:25:00,
2013-03-04 16:30:00,42.4,12.4,30.05,ENE,67,4.5,7.8,29,0.00,,---,0.00,VWS V13.01,2013-03-04 21:30:00,
2013-03-04 16:35:00,42.6,12.6,30.05,North,9,5.4,5.4,29,0.00,,---,0.00,VWS V13.01,2013-03-04 21:35:00,
2013-03-04 16:40:00,42.8,12.8,30.05,ENE,62,5.4,5.4,29,0.00,,---,0.00,VWS V13.01,2013-03-04 21:40:00,
2013-03-04 16:45:00,42.4,12.4,30.05,NNE,22,4.5,4.5,29,0.00,,---,0.00,VWS V13.01,2013-03-04 21:45:00,
2013-03-04 16:50:00,42.4,12.4,30.05,North,11,3.1,4.9,29,0.00,,---,0.00,VWS V13.01,2013-03-04 21:50:00,
2013-03-04 16:55:00,42.8,12.8,30.05,NNE,13,4.0,4.0,29,0.00,,---,0.00,VWS V13.01,2013-03-04 21:55:00,
2013-03-04 17:00:00,43.3,13.2,30.05,NNE,26,3.6,4.0,29,0.00,,---,0.00,VWS V13.01,2013-03-04 22:00:00,
2013-03-04 17:05:00,43.7,12.8,30.05,ENE,63,4.0,4.0,28,0.00,,---,0.00,VWS V13.01,2013-03-04 22:05:00,
2013-03-04 17:10:00,44.2,14.0,30.05,NNE,14,5.4,6.7,29,0.00,,---,0.00,VWS V13.01,2013-03-04 22:10:00,
2013-03-04 17:15:00,45.1,14.8,30.05,NNE,13,4.9,4.9,29,0.00,,---,0.00,VWS V13.01,2013-03-04 22:15:00,
2013-03-04 17:20:00,45.9,14.6,30.05,NNW,344,5.8,5.8,28,0.00,,---,0.00,VWS V13.01,2013-03-04 22:20:00,
2013-03-04 17:25:00,47.3,15.9,30.05,North,351,3.1,4.0,28,0.00,,---,0.00,VWS V13.01,2013-03-04 22:25:00,
2013-03-04 17:30:00,47.7,15.3,30.05,ENE,57,5.4,6.7,27,0.00,,---,0.00,VWS V13.01,2013-03-04 22:30:00,
2013-03-04 17:35:00,47.1,15.7,30.05,NNW,337,2.7,3.6,28,0.00,,---,0.00,VWS V13.01,2013-03-04 22:35:00,
2013-03-04 17:40:00,45.5,14.3,30.02,NNE,12,4.0,4.9,28,0.00,,---,0.00,VWS V13.01,2013-03-04 22:40:00,
2013-03-04 17:45:00,43.7,12.8,30.02,NNE,19,3.1,4.0,28,0.00,,---,0.00,VWS V13.01,2013-03-04 22:45:00,
2013-03-04 17:50:00,42.6,12.6,30.02,NNE,25,2.7,6.3,29,0.00,,---,0.00,VWS V13.01,2013-03-04 22:50:00,
2013-03-04 17:55:00,41.5,11.7,30.02,NNW,339,3.1,4.5,29,0.00,,---,0.00,VWS V13.01,2013-03-04 22:55:00,
2013-03-04 18:00:00,40.6,10.9,30.02,NNE,16,3.1,5.8,29,0.00,,---,0.00,VWS V13.01,2013-03-04 23:00:00,
2013-03-04 18:05:00,39.9,11.0,30.02,NNE,23,0.0,3.1,30,0.00,,---,0.00,VWS V13.01,2013-03-04 23:05:00,
2013-03-04 18:10:00,39.4,10.5,30.02,North,8,2.7,3.6,30,0.00,,---,0.00,VWS V13.01,2013-03-04 23:10:00,
2013-03-04 18:15:00,38.7,10.6,30.02,North,7,4.0,4.0,31,0.00,,---,0.00,VWS V13.01,2013-03-04 23:15:00,
2013-03-04 18:20:00,38.5,11.2,30.02,NNW,342,4.9,6.3,32,0.00,,---,0.00,VWS V13.01,2013-03-04 23:20:00,
2013-03-04 18:25:00,38.5,11.9,30.02,North,2,4.9,5.4,33,0.00,,---,0.00,VWS V13.01,2013-03-04 23:25:00,
2013-03-04 18:30:00,38.3,11.7,30.02,NNW,345,4.9,4.9,33,0.00,,---,0.00,VWS V13.01,2013-03-04 23:30:00,
2013-03-04 18:35:00,38.1,12.2,30.02,NNE,19,5.4,6.7,34,0.00,,---,0.00,VWS V13.01,2013-03-04 23:35:00,
2013-03-04 18:40:00,37.9,12.1,30.02,NNW,341,5.8,6.7,34,0.00,,---,0.00,VWS V13.01,2013-03-04 23:40:00,
2013-03-04 18:45:00,37.8,11.9,30.02,North,351,3.6,5.4,34,0.00,,---,0.00,VWS V13.01,2013-03-04 23:45:00,
2013-03-04 18:50:00,37.4,11.6,30.02,North,10,3.6,4.0,34,0.00,,---,0.00,VWS V13.01,2013-03-04 23:50:00,
2013-03-04 18:55:00,37.2,12.1,30.02,North,351,3.6,5.4,35,0.00,,---,0.00,VWS V13.01,2013-03-04 23:55:00,
2013-03-04 19:00:00,37.0,11.9,30.02,North,351,4.0,4.9,35,0.00,,---,0.00,VWS V13.01,2013-03-05 00:00:00,
2013-03-04 19:05:00,36.9,12.4,30.02,North,351,3.6,3.6,36,0.00,,---,0.00,VWS V13.01,2013-03-05 00:05:00,
2013-03-04 19:10:00,36.9,13.0,30.02,North,351,2.7,4.9,37,0.00,,---,0.00,VWS V13.01,2013-03-05 00:10:00,
2013-03-04 19:15:00,36.9,13.6,30.02,North,351,4.9,5.4,38,0.00,,---,0.00,VWS V13.01,2013-03-05 00:15:00,
2013-03-04 19:20:00,36.9,13.0,30.02,North,11,4.9,5.8,37,0.00,,---,0.00,VWS V13.01,2013-03-05 00:20:00,
2013-03-04 19:25:00,36.9,13.0,30.02,North,2,4.9,4.9,37,0.00,,---,0.00,VWS V13.01,2013-03-05 00:25:00,
2013-03-04 19:30:00,36.9,12.4,30.02,North,4,4.5,5.8,36,0.00,,---,0.00,VWS V13.01,2013-03-05 00:30:00,
2013-03-04 19:35:00,36.9,12.4,30.02,North,351,4.9,5.8,36,0.00,,---,0.00,VWS V13.01,2013-03-05 00:35:00,
2013-03-04 19:40:00,36.9,12.4,30.02,North,351,0.0,3.6,36,0.00,,---,0.00,VWS V13.01,2013-03-05 00:40:00,
2013-03-04 19:45:00,36.7,12.3,30.02,NNW,345,4.9,7.8,36,0.00,,---,0.00,VWS V13.01,2013-03-05 00:45:00,
2013-03-04 19:50:00,36.5,12.7,30.02,North,356,4.5,5.4,37,0.00,,---,0.00,VWS V13.01,2013-03-05 00:50:00,
2013-03-04 19:55:00,36.3,11.9,30.02,North,351,3.6,4.9,36,0.00,,---,0.00,VWS V13.01,2013-03-05 00:55:00,
2013-03-04 20:00:00,36.1,11.8,30.02,North,2,4.0,4.9,36,0.00,,---,0.00,VWS V13.01,2013-03-05 01:00:00,
2013-03-04 20:05:00,36.1,11.8,30.02,North,356,4.0,5.8,36,0.00,,---,0.00,VWS V13.01,2013-03-05 01:05:00,
2013-03-04 20:10:00,36.3,11.9,30.02,North,3,3.1,4.9,36,0.00,,---,0.00,VWS V13.01,2013-03-05 01:10:00,
2013-03-04 20:16:00,36.3,11.9,30.02,North,2,4.9,5.4,36,0.00,,---,0.00,VWS V13.01,2013-03-05 01:16:00,
2013-03-04 20:21:00,36.5,12.1,30.02,North,351,3.6,5.8,36,0.00,,---,0.00,VWS V13.01,2013-03-05 01:21:00,
2013-03-04 20:26:00,36.9,12.4,30.02,NNE,22,6.7,6.7,36,0.00,,---,0.00,VWS V13.01,2013-03-05 01:26:00,
2013-03-04 20:31:00,36.9,11.8,30.02,North,351,4.5,4.5,35,0.00,,---,0.00,VWS V13.01,2013-03-05 01:31:00,
2013-03-04 20:35:00,36.5,11.5,30.02,NNE,19,6.7,7.4,35,0.00,,---,0.00,VWS V13.01,2013-03-05 01:35:00,
2013-03-04 20:41:00,36.3,11.3,30.05,North,351,4.0,5.4,35,0.00,,---,0.00,VWS V13.01,2013-03-05 01:41:00,
2013-03-04 20:46:00,36.1,11.1,30.05,NNE,18,3.1,3.6,35,0.00,,---,0.00,VWS V13.01,2013-03-05 01:46:00,
2013-03-04 20:51:00,36.1,11.1,30.05,North,9,3.1,6.3,35,0.00,,---,0.00,VWS V13.01,2013-03-05 01:51:00,
2013-03-04 20:56:00,36.1,11.8,30.02,NNE,14,4.0,4.0,36,0.00,,---,0.00,VWS V13.01,2013-03-05 01:56:00,
2013-03-04 21:01:00,36.1,11.1,30.02,NNE,28,2.7,3.6,35,0.00,,---,0.00,VWS V13.01,2013-03-05 02:01:00,
2013-03-04 21:06:00,36.0,11.0,30.02,North,351,3.6,4.5,35,0.00,,---,0.00,VWS V13.01,2013-03-05 02:06:00,
2013-03-04 21:11:00,35.8,10.8,30.05,North,351,2.7,2.7,35,0.00,,---,0.00,VWS V13.01,2013-03-05 02:11:00,
2013-03-04 21:16:00,35.8,10.8,30.05,NNE,12,3.1,5.8,35,0.00,,---,0.00,VWS V13.01,2013-03-05 02:16:00,
2013-03-04 21:21:00,35.8,10.8,30.05,NNE,18,2.7,2.7,35,0.00,,---,0.00,VWS V13.01,2013-03-05 02:21:00,
2013-03-04 21:26:00,35.8,10.8,30.05,NNE,18,2.7,2.7,35,0.00,,---,0.00,VWS V13.01,2013-03-05 02:26:00,
2013-03-04 21:31:00,35.6,10.7,30.05,NNE,18,3.6,3.6,35,0.00,,---,0.00,VWS V13.01,2013-03-05 02:31:00,
2013-03-04 21:36:00,35.6,11.3,30.05,NNE,19,0.0,2.7,36,0.00,,---,0.00,VWS V13.01,2013-03-05 02:36:00,
2013-03-04 21:41:00,35.8,12.1,30.05,ENE,67,4.0,4.5,37,0.00,,---,0.00,VWS V13.01,2013-03-05 02:41:00,
2013-03-04 21:46:00,35.8,12.1,30.05,ENE,59,3.6,3.6,37,0.00,,---,0.00,VWS V13.01,2013-03-05 02:46:00,
2013-03-04 21:51:00,35.6,11.9,30.05,ENE,59,4.0,4.0,37,0.00,,---,0.00,VWS V13.01,2013-03-05 02:51:00,
2013-03-04 21:56:00,35.4,11.8,30.05,NE,34,3.6,4.5,37,0.00,,---,0.00,VWS V13.01,2013-03-05 02:56:00,
2013-03-04 22:01:00,35.4,11.8,30.05,NE,45,4.5,4.9,37,0.00,,---,0.00,VWS V13.01,2013-03-05 03:01:00,
2013-03-04 22:06:00,35.2,12.2,30.05,NE,46,3.6,3.6,38,0.00,,---,0.00,VWS V13.01,2013-03-05 03:06:00,
2013-03-04 22:11:00,35.1,12.6,30.05,NE,48,2.7,2.7,39,0.00,,---,0.00,VWS V13.01,2013-03-05 03:11:00,
2013-03-04 22:16:00,35.2,12.8,30.05,NE,48,2.7,3.1,39,0.00,,---,0.00,VWS V13.01,2013-03-05 03:16:00,
2013-03-04 22:21:00,35.2,12.8,30.05,NE,55,4.0,5.8,39,0.00,,---,0.00,VWS V13.01,2013-03-05 03:21:00,
2013-03-04 22:26:00,35.2,12.8,30.05,NE,56,3.1,4.0,39,0.00,,---,0.00,VWS V13.01,2013-03-05 03:26:00,
2013-03-04 22:31:00,35.2,12.8,30.05,NE,35,4.0,5.4,39,0.00,,---,0.00,VWS V13.01,2013-03-05 03:31:00,
2013-03-04 22:36:00,35.4,13.5,30.05,North,356,3.6,4.9,40,0.00,,---,0.00,VWS V13.01,2013-03-05 03:36:00,
2013-03-04 22:41:00,35.4,13.5,30.05,North,356,2.7,4.5,40,0.00,,---,0.00,VWS V13.01,2013-03-05 03:41:00,
2013-03-04 22:46:00,35.4,13.5,30.05,North,356,0.0,0.0,40,0.00,,---,0.00,VWS V13.01,2013-03-05 03:46:00,
2013-03-04 22:51:00,35.4,13.5,30.05,North,3,4.0,4.9,40,0.00,,---,0.00,VWS V13.01,2013-03-05 03:51:00,
2013-03-04 22:56:00,35.2,13.4,30.05,NNE,20,2.7,3.6,40,0.00,,---,0.00,VWS V13.01,2013-03-05 03:56:00,
2013-03-04 23:01:00,35.1,13.2,30.05,NNE,19,4.9,4.9,40,0.00,,---,0.00,VWS V13.01,2013-03-05 04:01:00,
2013-03-04 23:06:00,35.1,13.2,30.05,North,7,0.0,0.0,40,0.00,,---,0.00,VWS V13.01,2013-03-05 04:06:00,
2013-03-04 23:11:00,34.9,13.0,30.05,NNE,16,2.7,4.9,40,0.00,,---,0.00,VWS V13.01,2013-03-05 04:11:00,
2013-03-04 23:16:00,34.9,13.0,30.05,NNE,14,3.1,5.4,40,0.00,,---,0.00,VWS V13.01,2013-03-05 04:16:00,
2013-03-04 23:21:00,34.9,13.0,30.05,NNE,20,3.1,5.4,40,0.00,,---,0.00,VWS V13.01,2013-03-05 04:21:00,
2013-03-04 23:26:00,34.9,13.0,30.05,NNE,24,3.6,3.6,40,0.00,,---,0.00,VWS V13.01,2013-03-05 04:26:00,
2013-03-04 23:31:00,34.9,13.0,30.05,NNE,25,3.6,6.9,40,0.00,,---,0.00,VWS V13.01,2013-03-05 04:31:00,
2013-03-04 23:36:00,34.7,12.9,30.05,NNE,16,2.7,3.1,40,0.00,,---,0.00,VWS V13.01,2013-03-05 04:36:00,
2013-03-04 23:41:00,34.7,12.9,30.05,NNE,17,3.1,4.0,40,0.00,,---,0.00,VWS V13.01,2013-03-05 04:41:00,
2013-03-04 23:46:00,34.7,12.9,30.05,NNE,21,4.0,4.0,40,0.00,,---,0.00,VWS V13.01,2013-03-05 04:46:00,
2013-03-04 23:51:00,34.7,13.4,30.05,North,356,3.1,3.6,41,0.00,,---,0.00,VWS V13.01,2013-03-05 04:51:00,
2013-03-04 23:56:00,34.7,12.9,30.05,North,10,2.7,3.6,40,0.00,,---,0.00,VWS V13.01,2013-03-05 04:56:00,